Briefing drone pour Saint-julien-en-genevois

Rechercher une autre localisation

Conditions de vol :


Nous sommes le : Lundi 27 septembre 2021
Il est 00:26 UTC (02:26 LT)

Lever de soleil : 05:02 UTC (07:02 LT)
Coucher de soleil : 17:50 UTC (19:50 LT)

Météo

L'essentiel des conditions de vol

VIGILANCE MÉTÉO FRANCE - Haute-Savoie (74)
Pas de vigilances particulieres
CARTE TEMSI
CARTES DES FRONTS
METAR de LFLP
LFLP 270000Z AUTO 04006KT CAVOK 12/12 Q1021

Date d'émission: 27/09/2021
Heure d'émission: 00:00 UTC
Vent: 040° pour 6 KT (11 km/h)
Visibilité horizontale: > 10 km
Plafond : Plafond et visibilité OK (CAVOK)
Température: 12 °C
Point de rosée: 12 °C
Humidité: 100%
Pression (QNH): 1021 hPa
TAF de LFLP
AMD LFLP 261920Z 2619/2715 CNL

Conditions prévues :

Heure d'émission : Bulletin éffectué le 26 à 19:00 UTC
Prévision : Valide du 26 a 19:00 UTC au 27 a 15:00 UTC
Nuages : à 0ft (0 m)
WEBCAM POUR SAINT-JULIEN-EN-GENEVOIS

Réglementation

Voler en sécurité

CARTES AERONAUTIQUE 1/500.000
CARTES VAC (LFLP)
SUP AIP




Chargement des AIP...
NOTAM (SAINT-JULIEN-EN-GENEVOIS + Terrain à proximité / FIR )




Chargement des NOTAMS...
CONTACT PREFECTURE 74


Avertissement : Les données mises à disposition sont indicatives. Oxygène Drone ne pourra être tenu responsable de dégâts causés aux biens et aux personnes.